Time;durP1;ratioP1;P1;durP2;ratioP2;P2;SDS_P1;SDS_P2;PMS_P1;PMS_P2;Temp;Humidity;BMP_temperature;BMP_pressure;BME280_temperature;BME280_humidity;BME280_pressure;Samples;Min_cycle;Max_cycle;Signal;HPM_P1;HPM_P2
2022/09/30 00:01:35;;;;;;;;;;;;;;;;;;4901611;28;19957;-62
2022/09/30 00:04:03;;;;;;;;;;;;;;;;;;4904833;28;19918;-62
2022/09/30 00:06:28;;;;;;;;;;;;;;;;;;4900377;28;20518;-61
2022/09/30 00:08:53;;;;;;;;;;;;;;;;;;4901289;28;19929;-62
2022/09/30 00:11:21;;;;;;;;;;;;;;;;;;4896280;28;19970;-61
2022/09/30 00:13:47;;;;;;;;;;;;;;;;;;4921489;28;20368;-61
2022/09/30 00:16:12;;;;;;;;;;;;;;;;;;4917165;28;19918;-62
2022/09/30 00:18:40;;;;;;;;;;;;;;;;;;4901068;28;20284;-62
2022/09/30 00:21:05;;;;;;;;;;;;;;;;;;4908410;28;20216;-62
2022/09/30 00:23:33;;;;;;;;;;;;;;;;;;4905549;29;19919;-63
2022/09/30 00:26:00;;;;;;;;;;;;;;;;;;4922366;28;19933;-62
2022/09/30 00:28:26;;;;;;;;;;;;;;;;;;4902309;28;19965;-62
2022/09/30 00:30:51;;;;;;;;;;;;;;;;;;4918018;28;19919;-62
2022/09/30 00:33:18;;;;;;;;;;;;;;;;;;4918496;28;19918;-62
2022/09/30 00:35:46;;;;;;;;;;;;;;;;;;4918433;28;19922;-61
2022/09/30 00:38:11;;;;;;;;;;;;;;;;;;4919913;28;19938;-62
2022/09/30 00:40:37;;;;;;;;;;;;;;;;;;4903295;28;19923;-62
2022/09/30 00:43:04;;;;;;;;;;;;;;;;;;4904091;28;20021;-62
2022/09/30 00:45:32;;;;;;;;;;;;;;;;;;4919940;28;20018;-62
2022/09/30 00:47:59;;;;;;;;;;;;;;;;;;4920421;28;19927;-61
2022/09/30 00:50:24;;;;;;;;;;;;;;;;;;4918882;28;19946;-62
2022/09/30 00:52:52;;;;;;;;;;;;;;;;;;4909931;29;19990;-62
2022/09/30 00:55:20;;;;;;;;;;;;;;;;;;4902799;29;20005;-61
2022/09/30 00:57:48;;;;;;;;;;;;;;;;;;4895120;28;20013;-61
2022/09/30 01:00:13;;;;;;;;;;;;;;;;;;4919537;28;19918;-61
2022/09/30 01:02:38;;;;;;;;;;;;;;;;;;4908529;28;21491;-61
2022/09/30 01:05:04;;;;;;;;;;;;;;;;;;4921278;28;19929;-61
2022/09/30 01:07:29;;;;;;;;;;;;;;;;;;4901934;28;20611;-61
2022/09/30 01:09:55;;;;;;;;;;;;;;;;;;4909186;28;19923;-61
2022/09/30 01:12:20;;;;;;;;;;;;;;;;;;4919567;28;19922;-60
2022/09/30 01:14:46;;;;;;;;;;;;;;;;;;4918930;28;20336;-60
2022/09/30 01:17:11;;;;;;;;;;;;;;;;;;4919487;28;20013;-61
2022/09/30 01:19:37;;;;;;;;;;;;;;;;;;4918969;28;19930;-61
2022/09/30 01:22:02;;;;;;;;;;;;;;;;;;4901554;28;21772;-61
2022/09/30 01:24:30;;;;;;;;;;;;;;;;;;4917983;28;19922;-61
2022/09/30 01:26:58;;;;;;;;;;;;;;;;;;4918569;28;19923;-62
2022/09/30 01:29:23;;;;;;;;;;;;;;;;;;4906569;28;19929;-62
2022/09/30 01:31:48;;;;;;;;;;;;;;;;;;4920998;28;19930;-62
2022/09/30 01:34:16;;;;;;;;;;;;;;;;;;4920911;28;19934;-62
2022/09/30 01:36:42;;;;;;;;;;;;;;;;;;4908719;28;19923;-62
2022/09/30 01:39:07;;;;;;;;;;;;;;;;;;4904762;29;19930;-61
2022/09/30 01:41:32;;;;;;;;;;;;;;;;;;4918004;28;19990;-61
2022/09/30 01:43:57;;;;;;;;;;;;;;;;;;4894640;29;19926;-60
2022/09/30 01:46:23;;;;;;;;;;;;;;;;;;4919617;28;20882;-61
2022/09/30 01:48:48;;;;;;;;;;;;;;;;;;4911559;28;19927;-61
2022/09/30 01:51:14;;;;;;;;;;;;;;;;;;4920372;28;19933;-61
2022/09/30 01:53:39;;;;;;;;;;;;;;;;;;4920571;28;19926;-61
2022/09/30 01:56:05;;;;;;;;;;;;;;;;;;4920944;28;20721;-60
2022/09/30 01:58:31;;;;;;;;;;;;;;;;;;4909527;29;19922;-61
2022/09/30 02:00:58;;;;;;;;;;;;;;;;;;4918102;28;19923;-61
2022/09/30 02:03:24;;;;;;;;;;;;;;;;;;4910345;29;19949;-61
2022/09/30 02:05:52;;;;;;;;;;;;;;;;;;4918645;28;20424;-61
2022/09/30 02:08:19;;;;;;;;;;;;;;;;;;4910440;29;20016;-62
2022/09/30 02:10:45;;;;;;;;;;;;;;;;;;4907708;28;19969;-62
2022/09/30 02:13:11;;;;;;;;;;;;;;;;;;4917483;28;19962;-61
2022/09/30 02:15:36;;;;;;;;;;;;;;;;;;4891126;28;20005;-60
2022/09/30 02:18:02;;;;;;;;;;;;;;;;;;4920886;28;19929;-60
2022/09/30 02:20:32;;;;;;;;;;;;;;;;;;4907913;29;20002;-61
2022/09/30 02:22:57;;;;;;;;;;;;;;;;;;4904844;28;19947;-60
2022/09/30 02:25:26;;;;;;;;;;;;;;;;;;4917142;28;19918;-61
2022/09/30 02:27:54;;;;;;;;;;;;;;;;;;4903690;29;19934;-61
2022/09/30 02:30:21;;;;;;;;;;;;;;;;;;4891451;28;20042;-60
2022/09/30 02:32:47;;;;;;;;;;;;;;;;;;4915374;28;19926;-60
2022/09/30 02:35:12;;;;;;;;;;;;;;;;;;4921511;28;19966;-60
2022/09/30 02:37:39;;;;;;;;;;;;;;;;;;4908528;28;19919;-60
2022/09/30 02:40:05;;;;;;;;;;;;;;;;;;4903853;29;19923;-62
2022/09/30 02:42:30;;;;;;;;;;;;;;;;;;4903173;28;19994;-60
2022/09/30 02:44:56;;;;;;;;;;;;;;;;;;4922396;28;19986;-61
2022/09/30 02:47:24;;;;;;;;;;;;;;;;;;4920448;28;20512;-60
2022/09/30 02:49:50;;;;;;;;;;;;;;;;;;4903282;28;19918;-60
2022/09/30 02:52:17;;;;;;;;;;;;;;;;;;4920744;28;20025;-61
2022/09/30 02:54:43;;;;;;;;;;;;;;;;;;4901813;28;19931;-61
2022/09/30 02:57:10;;;;;;;;;;;;;;;;;;4890625;29;19919;-60
2022/09/30 02:59:36;;;;;;;;;;;;;;;;;;4903206;28;19968;-60
2022/09/30 03:02:04;;;;;;;;;;;;;;;;;;4919240;28;19981;-60
2022/09/30 03:04:31;;;;;;;;;;;;;;;;;;4893909;28;19974;-61
2022/09/30 03:06:59;;;;;;;;;;;;;;;;;;4921853;28;19930;-61
2022/09/30 03:09:24;;;;;;;;;;;;;;;;;;4920814;28;19922;-61
2022/09/30 03:11:50;;;;;;;;;;;;;;;;;;4920395;28;19925;-60
2022/09/30 03:14:20;;;;;;;;;;;;;;;;;;4901656;29;19919;-61
2022/09/30 03:16:45;;;;;;;;;;;;;;;;;;4922214;28;20677;-60
2022/09/30 03:19:11;;;;;;;;;;;;;;;;;;4917480;28;19923;-61
2022/09/30 03:21:37;;;;;;;;;;;;;;;;;;4921773;28;19927;-61
2022/09/30 03:24:05;;;;;;;;;;;;;;;;;;4921563;28;20017;-61
2022/09/30 03:26:33;;;;;;;;;;;;;;;;;;4919820;28;19925;-60
2022/09/30 03:29:01;;;;;;;;;;;;;;;;;;4920996;28;21891;-60
2022/09/30 03:31:27;;;;;;;;;;;;;;;;;;4903552;28;19925;-60
2022/09/30 03:33:55;;;;;;;;;;;;;;;;;;4901461;29;20561;-61
2022/09/30 03:36:20;;;;;;;;;;;;;;;;;;4920268;28;19923;-61
2022/09/30 03:38:48;;;;;;;;;;;;;;;;;;4900691;28;19961;-61
2022/09/30 03:41:16;;;;;;;;;;;;;;;;;;4902756;29;19937;-60
2022/09/30 03:43:44;;;;;;;;;;;;;;;;;;4890447;28;19922;-59
2022/09/30 03:46:09;;;;;;;;;;;;;;;;;;4905193;28;20266;-60
2022/09/30 03:48:39;;;;;;;;;;;;;;;;;;4908172;28;19922;-59
2022/09/30 03:51:04;;;;;;;;;;;;;;;;;;4903478;29;19930;-60
2022/09/30 03:53:33;;;;;;;;;;;;;;;;;;4918032;28;20203;-60
2022/09/30 03:56:01;;;;;;;;;;;;;;;;;;4918506;28;20455;-60
2022/09/30 03:58:26;;;;;;;;;;;;;;;;;;4900191;28;20034;-60
2022/09/30 04:00:51;;;;;;;;;;;;;;;;;;4919107;28;19939;-60
2022/09/30 04:03:18;;;;;;;;;;;;;;;;;;4916526;28;19930;-62
2022/09/30 04:05:43;;;;;;;;;;;;;;;;;;4902893;28;19922;-60
2022/09/30 04:08:09;;;;;;;;;;;;;;;;;;4896655;29;20050;-61
2022/09/30 04:10:37;;;;;;;;;;;;;;;;;;4916046;28;20523;-61
2022/09/30 04:13:03;;;;;;;;;;;;;;;;;;4908881;28;19933;-61
2022/09/30 04:15:28;;;;;;;;;;;;;;;;;;4899047;28;19923;-61
2022/09/30 04:17:53;;;;;;;;;;;;;;;;;;4905674;29;20005;-61
2022/09/30 04:20:21;;;;;;;;;;;;;;;;;;4895858;28;20033;-61
2022/09/30 04:22:46;;;;;;;;;;;;;;;;;;4916208;28;20397;-61
2022/09/30 04:25:14;;;;;;;;;;;;;;;;;;4914694;28;19922;-61
2022/09/30 04:27:39;;;;;;;;;;;;;;;;;;4917030;28;19929;-61
2022/09/30 04:30:05;;;;;;;;;;;;;;;;;;4887587;28;20902;-61
2022/09/30 04:32:31;;;;;;;;;;;;;;;;;;4919731;28;20410;-61
2022/09/30 04:34:56;;;;;;;;;;;;;;;;;;4923002;28;19929;-61
2022/09/30 04:37:22;;;;;;;;;;;;;;;;;;4921625;28;19923;-60
2022/09/30 04:39:50;;;;;;;;;;;;;;;;;;4915758;28;19922;-60
2022/09/30 04:42:17;;;;;;;;;;;;;;;;;;4897793;29;19990;-60
2022/09/30 04:44:42;;;;;;;;;;;;;;;;;;4895112;28;19923;-61
2022/09/30 04:47:08;;;;;;;;;;;;;;;;;;4919851;28;19919;-60
2022/09/30 04:49:33;;;;;;;;;;;;;;;;;;4904468;29;19931;-61
2022/09/30 04:51:58;;;;;;;;;;;;;;;;;;4918768;28;19919;-61
2022/09/30 04:54:26;;;;;;;;;;;;;;;;;;4912127;28;20040;-61
2022/09/30 04:56:52;;;;;;;;;;;;;;;;;;4887922;29;19926;-61
2022/09/30 04:59:17;;;;;;;;;;;;;;;;;;4888803;29;20386;-59
2022/09/30 05:01:43;;;;;;;;;;;;;;;;;;4889838;29;21042;-60
2022/09/30 05:04:09;;;;;;;;;;;;;;;;;;4906509;29;20434;-60
2022/09/30 05:06:35;;;;;;;;;;;;;;;;;;4876428;29;19927;-60
2022/09/30 05:09:02;;;;;;;;;;;;;;;;;;4905039;29;19957;-60
2022/09/30 05:11:28;;;;;;;;;;;;;;;;;;4874079;29;19930;-60
2022/09/30 05:13:54;;;;;;;;;;;;;;;;;;4907647;29;19919;-59
2022/09/30 05:16:26;;;;;;;;;;;;;;;;;;4897239;29;19926;-61
2022/09/30 05:18:54;;;;;;;;;;;;;;;;;;4906622;29;19926;-60
2022/09/30 05:21:20;;;;;;;;;;;;;;;;;;4888318;29;19923;-60
2022/09/30 05:23:47;;;;;;;;;;;;;;;;;;4906278;29;19965;-61
2022/09/30 05:26:15;;;;;;;;;;;;;;;;;;4895846;29;19919;-61
2022/09/30 05:28:40;;;;;;;;;;;;;;;;;;4898637;29;19970;-60
2022/09/30 05:31:06;;;;;;;;;;;;;;;;;;4890533;29;20361;-61
2022/09/30 05:33:34;;;;;;;;;;;;;;;;;;4896710;29;19919;-61
2022/09/30 05:36:00;;;;;;;;;;;;;;;;;;4903491;29;19933;-60
2022/09/30 05:38:25;;;;;;;;;;;;;;;;;;4905547;29;20814;-60
2022/09/30 05:40:51;;;;;;;;;;;;;;;;;;4883703;29;20071;-61
2022/09/30 05:43:16;;;;;;;;;;;;;;;;;;4888305;29;19931;-61
2022/09/30 05:45:42;;;;;;;;;;;;;;;;;;4906839;29;20460;-61
2022/09/30 05:48:09;;;;;;;;;;;;;;;;;;4890827;29;19923;-61
2022/09/30 05:50:37;;;;;;;;;;;;;;;;;;4876903;29;19961;-61
2022/09/30 05:53:05;;;;;;;;;;;;;;;;;;4908466;29;19953;-61
2022/09/30 05:55:32;;;;;;;;;;;;;;;;;;4920284;28;20526;-63
2022/09/30 05:57:58;;;;;;;;;;;;;;;;;;4920950;28;19933;-61
2022/09/30 06:00:23;;;;;;;;;;;;;;;;;;4903066;29;20091;-61
2022/09/30 06:02:48;;;;;;;;;;;;;;;;;;4915786;28;19934;-61
2022/09/30 06:05:16;;;;;;;;;;;;;;;;;;4900129;28;19930;-61
2022/09/30 06:07:42;;;;;;;;;;;;;;;;;;4916257;28;19930;-60
2022/09/30 06:10:11;;;;;;;;;;;;;;;;;;4889197;28;19933;-61
2022/09/30 06:12:39;;;;;;;;;;;;;;;;;;4908543;29;19922;-61
2022/09/30 06:15:04;;;;;;;;;;;;;;;;;;4923138;28;19979;-60
2022/09/30 06:17:30;;;;;;;;;;;;;;;;;;4921579;28;19930;-60
2022/09/30 06:19:55;;;;;;;;;;;;;;;;;;4919831;28;20371;-60
2022/09/30 06:22:23;;;;;;;;;;;;;;;;;;4906619;28;19922;-60
2022/09/30 06:24:48;;;;;;;;;;;;;;;;;;4900298;28;20955;-59
2022/09/30 06:27:29;;;;;;;;;;;;;;;;;;4917812;28;19942;-60
2022/09/30 06:29:56;;;;;;;;;;;;;;;;;;4899853;29;19994;-62
2022/09/30 06:32:29;;;;;;;;;;;;;;;;;;4902495;29;19926;-62
2022/09/30 06:34:59;;;;;;;;;;;;;;;;;;4920080;28;19969;-61
2022/09/30 06:37:27;;;;;;;;;;;;;;;;;;4921357;28;19945;-61
2022/09/30 06:39:53;;;;;;;;;;;;;;;;;;4919635;28;20387;-61
2022/09/30 06:42:23;;;;;;;;;;;;;;;;;;4900272;29;20272;-62
2022/09/30 06:48:07;;;;;;;;;;;;;;;;;;4920830;28;19930;-62
2022/09/30 06:50:33;;;;;;;;;;;;;;;;;;4901866;28;19926;-61
2022/09/30 06:52:58;;;;;;;;;;;;;;;;;;4921016;28;19948;-61
2022/09/30 07:01:58;;;;;;;;;;;;;;;;;;4920869;28;19980;-61
2022/09/30 07:04:23;;;;;;;;;;;;;;;;;;4903686;29;19922;-63
2022/09/30 07:06:52;;;;;;;;;;;;;;;;;;4893964;29;19930;-64
2022/09/30 07:09:17;;;;;;;;;;;;;;;;;;4904956;29;19923;-63
2022/09/30 07:11:43;;;;;;;;;;;;;;;;;;4902701;29;20002;-63
2022/09/30 07:14:09;;;;;;;;;;;;;;;;;;4900553;28;20022;-62
2022/09/30 07:16:34;;;;;;;;;;;;;;;;;;4899516;28;19981;-62
2022/09/30 07:19:02;;;;;;;;;;;;;;;;;;4915843;28;19966;-61
2022/09/30 07:21:30;;;;;;;;;;;;;;;;;;4899675;28;20734;-63
2022/09/30 07:23:57;;;;;;;;;;;;;;;;;;4920956;28;20270;-62
2022/09/30 07:26:22;;;;;;;;;;;;;;;;;;4884867;28;19926;-63
2022/09/30 07:28:48;;;;;;;;;;;;;;;;;;4884800;29;19923;-63
2022/09/30 07:31:16;;;;;;;;;;;;;;;;;;4900956;29;20493;-63
2022/09/30 07:33:41;;;;;;;;;;;;;;;;;;4920379;28;19926;-63
2022/09/30 07:36:07;;;;;;;;;;;;;;;;;;4903503;29;19929;-63
2022/09/30 07:38:35;;;;;;;;;;;;;;;;;;4893889;28;19943;-63
2022/09/30 07:41:00;;;;;;;;;;;;;;;;;;4891803;29;20025;-64
2022/09/30 07:43:26;;;;;;;;;;;;;;;;;;4920700;28;19934;-64
2022/09/30 07:49:23;;;;;;;;;;;;;;;;;;4920766;28;20021;-65
2022/09/30 07:51:49;;;;;;;;;;;;;;;;;;4920203;28;20799;-63
2022/09/30 07:54:14;;;;;;;;;;;;;;;;;;4900260;29;19929;-63
2022/09/30 07:56:58;;;;;;;;;;;;;;;;;;4902520;28;20345;-64
2022/09/30 07:59:30;;;;;;;;;;;;;;;;;;4902200;29;19919;-64
2022/09/30 08:02:02;;;;;;;;;;;;;;;;;;4903163;28;20263;-64
2022/09/30 08:04:27;;;;;;;;;;;;;;;;;;4903037;29;19957;-66
2022/09/30 08:06:55;;;;;;;;;;;;;;;;;;4919799;28;19922;-63
2022/09/30 08:09:20;;;;;;;;;;;;;;;;;;4898193;28;19926;-65
2022/09/30 08:14:43;;;;;;;;;;;;;;;;;;4918486;28;19925;-65
2022/09/30 08:17:08;;;;;;;;;;;;;;;;;;4908058;28;20749;-65
2022/09/30 08:19:34;;;;;;;;;;;;;;;;;;4899290;28;19923;-67
2022/09/30 08:21:59;;;;;;;;;;;;;;;;;;4899638;28;19922;-65
2022/09/30 08:24:24;;;;;;;;;;;;;;;;;;4890196;28;20044;-65
2022/09/30 08:26:50;;;;;;;;;;;;;;;;;;4890784;29;20370;-65
2022/09/30 08:29:16;;;;;;;;;;;;;;;;;;4909240;29;20370;-65
2022/09/30 08:31:41;;;;;;;;;;;;;;;;;;4903352;29;19922;-65
2022/09/30 08:34:09;;;;;;;;;;;;;;;;;;4895086;29;19927;-65
2022/09/30 08:36:34;;;;;;;;;;;;;;;;;;4920669;28;20154;-64
2022/09/30 08:38:59;;;;;;;;;;;;;;;;;;4904763;29;19952;-66
2022/09/30 08:44:42;;;;;;;;;;;;;;;;;;4923793;28;20017;-67
2022/09/30 08:47:07;;;;;;;;;;;;;;;;;;4908636;29;20485;-66
2022/09/30 08:49:33;;;;;;;;;;;;;;;;;;4905143;29;19934;-67
2022/09/30 08:51:58;;;;;;;;;;;;;;;;;;4923627;28;19929;-66
2022/09/30 08:54:24;;;;;;;;;;;;;;;;;;4923516;28;20363;-67
2022/09/30 08:56:49;;;;;;;;;;;;;;;;;;4924151;28;20399;-67
2022/09/30 09:02:34;;;;;;;;;;;;;;;;;;4924006;28;20448;-65
2022/09/30 09:04:59;;;;;;;;;;;;;;;;;;4907380;29;19923;-66
2022/09/30 09:07:24;;;;;;;;;;;;;;;;;;4897441;29;19923;-66
2022/09/30 09:09:50;;;;;;;;;;;;;;;;;;4910459;28;19926;-66
2022/09/30 09:12:16;;;;;;;;;;;;;;;;;;4922340;28;19973;-66
2022/09/30 09:14:42;;;;;;;;;;;;;;;;;;4923615;28;19926;-66
2022/09/30 09:17:16;;;;;;;;;;;;;;;;;;4922613;28;19935;-66
2022/09/30 09:22:29;;;;;;;;;;;;;;;;;;4923876;28;19965;-67
2022/09/30 09:24:57;;;;;;;;;;;;;;;;;;4887466;29;19923;-67
2022/09/30 09:27:22;;;;;;;;;;;;;;;;;;4922636;28;19930;-65
2022/09/30 09:29:47;;;;;;;;;;;;;;;;;;4922125;28;19942;-66
2022/09/30 09:32:13;;;;;;;;;;;;;;;;;;4905315;29;20071;-64
2022/09/30 09:34:43;;;;;;;;;;;;;;;;;;4913250;29;19930;-66
2022/09/30 09:37:08;;;;;;;;;;;;;;;;;;4896094;28;19919;-66
2022/09/30 09:39:36;;;;;;;;;;;;;;;;;;4922823;28;19953;-65
2022/09/30 09:42:20;;;;;;;;;;;;;;;;;;4900952;29;20045;-67
2022/09/30 09:51:19;;;;;;;;;;;;;;;;;;4916745;28;19930;-66
2022/09/30 09:53:47;;;;;;;;;;;;;;;;;;4901451;29;20017;-68
2022/09/30 09:59:34;;;;;;;;;;;;;;;;;;4914237;28;19930;-66
2022/09/30 10:02:00;;;;;;;;;;;;;;;;;;4919498;28;20013;-67
2022/09/30 10:11:02;;;;;;;;;;;;;;;;;;4904027;28;21878;-66
2022/09/30 10:13:28;;;;;;;;;;;;;;;;;;4901742;28;19918;-66
2022/09/30 10:15:53;;;;;;;;;;;;;;;;;;4901522;28;19922;-67
2022/09/30 10:18:19;;;;;;;;;;;;;;;;;;4907286;29;19930;-68
2022/09/30 10:20:44;;;;;;;;;;;;;;;;;;4918318;28;20271;-67
2022/09/30 10:26:28;;;;;;;;;;;;;;;;;;4917923;28;19926;-67
2022/09/30 10:28:57;;;;;;;;;;;;;;;;;;4903738;28;21455;-65
2022/09/30 10:31:22;;;;;;;;;;;;;;;;;;4907769;29;19918;-67
2022/09/30 10:37:04;;;;;;;;;;;;;;;;;;4911432;28;19974;-67
2022/09/30 10:39:29;;;;;;;;;;;;;;;;;;4916812;28;21917;-67
2022/09/30 10:41:54;;;;;;;;;;;;;;;;;;4915217;28;20455;-66
2022/09/30 10:47:36;;;;;;;;;;;;;;;;;;4918960;28;21228;-67
2022/09/30 10:53:18;;;;;;;;;;;;;;;;;;4917686;28;20077;-65
2022/09/30 10:55:44;;;;;;;;;;;;;;;;;;4901543;28;19948;-65
2022/09/30 10:58:09;;;;;;;;;;;;;;;;;;4912504;29;19933;-66
2022/09/30 11:00:36;;;;;;;;;;;;;;;;;;4905166;29;19970;-68
2022/09/30 11:03:01;;;;;;;;;;;;;;;;;;4904580;28;19938;-69
2022/09/30 11:05:27;;;;;;;;;;;;;;;;;;4914927;28;19923;-67
2022/09/30 11:07:52;;;;;;;;;;;;;;;;;;4912906;28;20033;-68
2022/09/30 11:10:20;;;;;;;;;;;;;;;;;;4883063;29;19930;-67
2022/09/30 11:12:45;;;;;;;;;;;;;;;;;;4901050;28;20048;-66
2022/09/30 11:15:10;;;;;;;;;;;;;;;;;;4904837;29;19923;-68
2022/09/30 11:17:36;;;;;;;;;;;;;;;;;;4900422;28;20639;-66
2022/09/30 11:20:05;;;;;;;;;;;;;;;;;;4883030;29;19922;-63
2022/09/30 11:25:49;;;;;;;;;;;;;;;;;;4915947;28;19974;-66
2022/09/30 11:28:17;;;;;;;;;;;;;;;;;;4900669;28;20350;-60
2022/09/30 11:33:59;;;;;;;;;;;;;;;;;;4918979;28;21921;-66
2022/09/30 11:36:24;;;;;;;;;;;;;;;;;;4915172;28;20005;-64
2022/09/30 11:39:05;;;;;;;;;;;;;;;;;;4896850;28;19923;-66
2022/09/30 11:41:33;;;;;;;;;;;;;;;;;;4898659;28;20824;-67
2022/09/30 11:43:58;;;;;;;;;;;;;;;;;;4897640;28;20021;-61
2022/09/30 11:46:23;;;;;;;;;;;;;;;;;;4913379;28;20299;-67
2022/09/30 11:48:49;;;;;;;;;;;;;;;;;;4899315;28;19922;-65
2022/09/30 11:51:17;;;;;;;;;;;;;;;;;;4901159;28;19923;-68
2022/09/30 11:53:45;;;;;;;;;;;;;;;;;;4900136;28;20000;-65
2022/09/30 11:56:10;;;;;;;;;;;;;;;;;;4897752;28;20896;-67
2022/09/30 11:58:35;;;;;;;;;;;;;;;;;;4893171;28;20034;-67
2022/09/30 12:01:01;;;;;;;;;;;;;;;;;;4898726;29;19919;-66
2022/09/30 12:03:26;;;;;;;;;;;;;;;;;;4899235;28;19923;-66
2022/09/30 12:08:43;;;;;;;;;;;;;;;;;;4905598;28;19929;-66
2022/09/30 12:11:13;;;;;;;;;;;;;;;;;;4919224;28;20013;-63
2022/09/30 12:13:38;;;;;;;;;;;;;;;;;;4908474;28;19930;-64
2022/09/30 12:16:03;;;;;;;;;;;;;;;;;;4922078;28;19923;-66
2022/09/30 12:18:50;;;;;;;;;;;;;;;;;;4922311;28;19926;-62
2022/09/30 12:21:16;;;;;;;;;;;;;;;;;;4915679;28;19923;-60
2022/09/30 12:23:42;;;;;;;;;;;;;;;;;;4904223;28;21850;-65
2022/09/30 12:26:10;;;;;;;;;;;;;;;;;;4919426;28;19929;-61
2022/09/30 12:31:19;;;;;;;;;;;;;;;;;;4913271;28;19923;-62
2022/09/30 12:33:46;;;;;;;;;;;;;;;;;;4920043;28;19933;-64
2022/09/30 12:39:29;;;;;;;;;;;;;;;;;;4920854;28;20005;-66
2022/09/30 12:41:54;;;;;;;;;;;;;;;;;;4909521;29;19926;-64
2022/09/30 12:44:19;;;;;;;;;;;;;;;;;;4885836;29;19923;-64
2022/09/30 12:46:46;;;;;;;;;;;;;;;;;;4901769;29;20081;-68
2022/09/30 12:49:20;;;;;;;;;;;;;;;;;;4903899;29;19938;-69
2022/09/30 12:51:46;;;;;;;;;;;;;;;;;;4878241;28;19923;-62
2022/09/30 12:54:13;;;;;;;;;;;;;;;;;;4915992;28;19938;-67
2022/09/30 12:56:41;;;;;;;;;;;;;;;;;;4910725;28;19966;-61
2022/09/30 12:59:09;;;;;;;;;;;;;;;;;;4908397;28;20097;-61
2022/09/30 13:01:34;;;;;;;;;;;;;;;;;;4920519;28;19929;-62
2022/09/30 13:03:59;;;;;;;;;;;;;;;;;;4924568;28;19918;-67
2022/09/30 13:06:25;;;;;;;;;;;;;;;;;;4911906;29;19922;-68
2022/09/30 13:09:11;;;;;;;;;;;;;;;;;;4922670;28;19919;-64
2022/09/30 13:11:36;;;;;;;;;;;;;;;;;;4903287;29;19918;-68
2022/09/30 13:14:01;;;;;;;;;;;;;;;;;;4923203;28;20948;-61
2022/09/30 13:16:27;;;;;;;;;;;;;;;;;;4903797;29;20291;-65
2022/09/30 13:18:52;;;;;;;;;;;;;;;;;;4891911;29;19935;-68
2022/09/30 13:21:35;;;;;;;;;;;;;;;;;;4921935;28;19929;-67
2022/09/30 13:24:04;;;;;;;;;;;;;;;;;;4897492;29;19961;-64
2022/09/30 13:26:30;;;;;;;;;;;;;;;;;;4915403;28;19928;-64
2022/09/30 13:28:58;;;;;;;;;;;;;;;;;;4907611;29;19930;-66
2022/09/30 13:31:23;;;;;;;;;;;;;;;;;;4921051;28;19926;-68
2022/09/30 13:36:33;;;;;;;;;;;;;;;;;;4919965;28;20701;-66
2022/09/30 13:39:00;;;;;;;;;;;;;;;;;;4885962;28;19924;-66
2022/09/30 13:41:28;;;;;;;;;;;;;;;;;;4893742;28;19919;-65
2022/09/30 13:44:02;;;;;;;;;;;;;;;;;;4885854;28;19938;-65
2022/09/30 13:46:28;;;;;;;;;;;;;;;;;;4914209;28;19930;-65
2022/09/30 13:48:53;;;;;;;;;;;;;;;;;;4890187;28;19957;-67
2022/09/30 13:51:19;;;;;;;;;;;;;;;;;;4909636;28;19945;-67
2022/09/30 13:53:44;;;;;;;;;;;;;;;;;;4916765;28;20547;-68
2022/09/30 13:56:12;;;;;;;;;;;;;;;;;;4902735;28;19931;-68
2022/09/30 13:58:43;;;;;;;;;;;;;;;;;;4897467;29;19926;-65
2022/09/30 14:01:09;;;;;;;;;;;;;;;;;;4919183;28;19923;-67
2022/09/30 14:03:37;;;;;;;;;;;;;;;;;;4908150;28;19922;-65
2022/09/30 14:06:02;;;;;;;;;;;;;;;;;;4904719;29;20508;-67
2022/09/30 14:08:31;;;;;;;;;;;;;;;;;;4921518;28;19933;-66
2022/09/30 14:10:57;;;;;;;;;;;;;;;;;;4905045;29;19919;-67
2022/09/30 14:16:38;;;;;;;;;;;;;;;;;;4917970;28;19977;-63
2022/09/30 14:19:06;;;;;;;;;;;;;;;;;;4914781;28;19938;-65
2022/09/30 14:21:32;;;;;;;;;;;;;;;;;;4901100;29;19927;-65
2022/09/30 14:23:58;;;;;;;;;;;;;;;;;;4920452;28;19945;-68
2022/09/30 14:26:25;;;;;;;;;;;;;;;;;;4916420;28;19929;-66
2022/09/30 14:28:53;;;;;;;;;;;;;;;;;;4905403;29;20418;-65
2022/09/30 14:31:18;;;;;;;;;;;;;;;;;;4916067;28;20017;-65
2022/09/30 14:33:44;;;;;;;;;;;;;;;;;;4922388;28;20558;-67
2022/09/30 14:36:15;;;;;;;;;;;;;;;;;;4922579;28;20036;-65
2022/09/30 14:38:40;;;;;;;;;;;;;;;;;;4902641;28;19926;-64
2022/09/30 14:41:07;;;;;;;;;;;;;;;;;;4914432;28;19950;-67
2022/09/30 14:43:34;;;;;;;;;;;;;;;;;;4921016;28;19926;-66
2022/09/30 14:46:00;;;;;;;;;;;;;;;;;;4902700;28;19922;-67
2022/09/30 14:51:42;;;;;;;;;;;;;;;;;;4911834;28;19974;-64
2022/09/30 14:54:10;;;;;;;;;;;;;;;;;;4900769;28;20021;-66
2022/09/30 14:56:35;;;;;;;;;;;;;;;;;;4913374;28;19923;-60
2022/09/30 14:59:00;;;;;;;;;;;;;;;;;;4901149;28;20371;-65
2022/09/30 15:01:26;;;;;;;;;;;;;;;;;;4901705;28;19922;-66
2022/09/30 15:03:54;;;;;;;;;;;;;;;;;;4892769;29;19922;-65
2022/09/30 15:12:27;;;;;;;;;;;;;;;;;;4916136;28;20076;-68
2022/09/30 15:14:53;;;;;;;;;;;;;;;;;;4902032;29;19953;-66
2022/09/30 15:17:20;;;;;;;;;;;;;;;;;;4897173;28;19922;-66
2022/09/30 15:19:47;;;;;;;;;;;;;;;;;;4898411;29;19929;-67
2022/09/30 15:22:12;;;;;;;;;;;;;;;;;;4899690;28;20925;-66
2022/09/30 15:24:40;;;;;;;;;;;;;;;;;;4897797;29;20004;-67
2022/09/30 15:27:09;;;;;;;;;;;;;;;;;;4896184;28;20394;-67
2022/09/30 15:32:51;;;;;;;;;;;;;;;;;;4916753;28;19933;-66
2022/09/30 15:35:18;;;;;;;;;;;;;;;;;;4903470;28;19923;-66
2022/09/30 15:37:44;;;;;;;;;;;;;;;;;;4889888;28;20703;-68
2022/09/30 15:49:30;;;;;;;;;;;;;;;;;;4915794;28;19950;-63
2022/09/30 15:51:59;;;;;;;;;;;;;;;;;;4918682;28;19922;-67
2022/09/30 15:54:24;;;;;;;;;;;;;;;;;;4900038;29;20002;-66
2022/09/30 15:56:53;;;;;;;;;;;;;;;;;;4917270;28;20018;-67
2022/09/30 15:59:21;;;;;;;;;;;;;;;;;;4915455;28;19969;-67
2022/09/30 16:05:04;;;;;;;;;;;;;;;;;;4916351;28;20052;-66
2022/09/30 16:07:29;;;;;;;;;;;;;;;;;;4905100;28;20010;-67
2022/09/30 16:09:55;;;;;;;;;;;;;;;;;;4909249;28;21202;-66
2022/09/30 16:12:30;;;;;;;;;;;;;;;;;;4907656;29;19944;-66
2022/09/30 16:14:56;;;;;;;;;;;;;;;;;;4918882;28;19923;-66
2022/09/30 16:17:23;;;;;;;;;;;;;;;;;;4905400;29;19938;-67
2022/09/30 16:19:49;;;;;;;;;;;;;;;;;;4896759;28;19923;-67
2022/09/30 16:22:14;;;;;;;;;;;;;;;;;;4904920;28;19926;-67
2022/09/30 16:24:39;;;;;;;;;;;;;;;;;;4916820;28;19973;-67
2022/09/30 16:27:05;;;;;;;;;;;;;;;;;;4889828;29;19923;-67
2022/09/30 16:29:32;;;;;;;;;;;;;;;;;;4917502;28;19919;-66
2022/09/30 16:32:00;;;;;;;;;;;;;;;;;;4900904;28;20500;-65
2022/09/30 16:34:44;;;;;;;;;;;;;;;;;;4898145;28;19962;-66
2022/09/30 16:37:12;;;;;;;;;;;;;;;;;;4916577;28;21609;-64
2022/09/30 16:39:39;;;;;;;;;;;;;;;;;;4898009;28;19922;-62
2022/09/30 16:42:04;;;;;;;;;;;;;;;;;;4899674;29;19947;-66
2022/09/30 16:44:33;;;;;;;;;;;;;;;;;;4915011;28;19927;-65
2022/09/30 16:46:58;;;;;;;;;;;;;;;;;;4914506;28;19922;-66
2022/09/30 16:49:26;;;;;;;;;;;;;;;;;;4918942;28;19933;-65
2022/09/30 16:51:51;;;;;;;;;;;;;;;;;;4920686;28;19923;-64
2022/09/30 16:57:33;;;;;;;;;;;;;;;;;;4922389;28;20908;-64
2022/09/30 17:00:01;;;;;;;;;;;;;;;;;;4922167;28;19923;-64
2022/09/30 17:02:28;;;;;;;;;;;;;;;;;;4903864;29;19930;-66
2022/09/30 17:04:54;;;;;;;;;;;;;;;;;;4922360;28;19923;-65
2022/09/30 17:07:19;;;;;;;;;;;;;;;;;;4909440;28;20072;-66
2022/09/30 17:09:45;;;;;;;;;;;;;;;;;;4908106;29;19926;-65
2022/09/30 17:12:11;;;;;;;;;;;;;;;;;;4920077;28;19919;-64
2022/09/30 17:14:36;;;;;;;;;;;;;;;;;;4922251;28;20017;-63
2022/09/30 17:17:02;;;;;;;;;;;;;;;;;;4923106;28;19919;-65
2022/09/30 17:19:29;;;;;;;;;;;;;;;;;;4920293;28;20713;-64
2022/09/30 17:25:10;;;;;;;;;;;;;;;;;;4921824;28;19934;-65
2022/09/30 17:30:52;;;;;;;;;;;;;;;;;;4922750;28;20547;-65
2022/09/30 17:33:21;;;;;;;;;;;;;;;;;;4920954;28;20291;-65
2022/09/30 17:35:46;;;;;;;;;;;;;;;;;;4922952;28;19930;-65
2022/09/30 17:38:11;;;;;;;;;;;;;;;;;;4902217;29;19919;-65
2022/09/30 17:43:21;;;;;;;;;;;;;;;;;;4922381;28;19933;-65
2022/09/30 17:45:47;;;;;;;;;;;;;;;;;;4919462;28;19929;-65
2022/09/30 17:48:13;;;;;;;;;;;;;;;;;;4922355;28;20816;-64
2022/09/30 17:50:41;;;;;;;;;;;;;;;;;;4902004;29;19934;-65
2022/09/30 17:53:06;;;;;;;;;;;;;;;;;;4923061;28;19929;-64
2022/09/30 17:55:35;;;;;;;;;;;;;;;;;;4920401;28;19927;-67
2022/09/30 17:58:04;;;;;;;;;;;;;;;;;;4908479;28;20053;-65
2022/09/30 18:00:32;;;;;;;;;;;;;;;;;;4921760;28;20065;-66
2022/09/30 18:02:58;;;;;;;;;;;;;;;;;;4910928;29;20347;-66
2022/09/30 18:05:26;;;;;;;;;;;;;;;;;;4924073;28;20022;-62
2022/09/30 18:07:52;;;;;;;;;;;;;;;;;;4910561;29;19966;-66
2022/09/30 18:10:17;;;;;;;;;;;;;;;;;;4922952;28;20105;-63
2022/09/30 18:12:42;;;;;;;;;;;;;;;;;;4922790;28;20299;-66
2022/09/30 18:15:08;;;;;;;;;;;;;;;;;;4892852;29;20358;-66
2022/09/30 18:17:34;;;;;;;;;;;;;;;;;;4921555;28;19922;-66
2022/09/30 18:19:59;;;;;;;;;;;;;;;;;;4904294;29;19923;-67
2022/09/30 18:22:24;;;;;;;;;;;;;;;;;;4891703;28;19985;-67
2022/09/30 18:27:34;;;;;;;;;;;;;;;;;;4922207;28;19926;-64
2022/09/30 18:30:00;;;;;;;;;;;;;;;;;;4909717;29;19930;-65
2022/09/30 18:32:25;;;;;;;;;;;;;;;;;;4922063;28;20387;-65
2022/09/30 18:34:58;;;;;;;;;;;;;;;;;;4921568;28;19915;-66
2022/09/30 18:37:26;;;;;;;;;;;;;;;;;;4906063;28;19927;-66
2022/09/30 18:39:54;;;;;;;;;;;;;;;;;;4902226;28;19923;-66